sensor_id;sensor_type;location;lat;lon;timestamp;temperature;humidity
15969;DHT22;8085;53.472;9.794;2022-09-17T00:01:16;11.90;99.90
15969;DHT22;8085;53.472;9.794;2022-09-17T00:03:43;12.00;99.90
15969;DHT22;8085;53.472;9.794;2022-09-17T00:06:12;12.00;99.90
15969;DHT22;8085;53.472;9.794;2022-09-17T00:08:40;12.10;99.90
15969;DHT22;8085;53.472;9.794;2022-09-17T00:11:09;12.00;99.90
15969;DHT22;8085;53.472;9.794;2022-09-17T00:13:36;12.00;99.90
15969;DHT22;8085;53.472;9.794;2022-09-17T00:16:03;11.90;99.90
15969;DHT22;8085;53.472;9.794;2022-09-17T00:18:30;11.90;99.90
15969;DHT22;8085;53.472;9.794;2022-09-17T00:20:57;11.90;99.90
15969;DHT22;8085;53.472;9.794;2022-09-17T00:23:25;11.80;99.90
15969;DHT22;8085;53.472;9.794;2022-09-17T00:25:52;11.90;99.90
15969;DHT22;8085;53.472;9.794;2022-09-17T00:28:19;11.90;99.90
15969;DHT22;8085;53.472;9.794;2022-09-17T00:30:46;11.80;99.90
15969;DHT22;8085;53.472;9.794;2022-09-17T00:33:15;11.80;99.90
15969;DHT22;8085;53.472;9.794;2022-09-17T00:35:42;11.80;99.90
15969;DHT22;8085;53.472;9.794;2022-09-17T00:38:09;11.80;99.90
15969;DHT22;8085;53.472;9.794;2022-09-17T00:40:38;11.70;99.90
15969;DHT22;8085;53.472;9.794;2022-09-17T00:43:09;11.70;99.90
15969;DHT22;8085;53.472;9.794;2022-09-17T00:45:37;11.70;99.90
15969;DHT22;8085;53.472;9.794;2022-09-17T00:48:05;11.80;99.90
15969;DHT22;8085;53.472;9.794;2022-09-17T00:50:35;11.70;99.90
15969;DHT22;8085;53.472;9.794;2022-09-17T00:53:05;11.70;99.90
15969;DHT22;8085;53.472;9.794;2022-09-17T00:55:35;11.70;99.90
15969;DHT22;8085;53.472;9.794;2022-09-17T00:58:06;11.70;99.90
15969;DHT22;8085;53.472;9.794;2022-09-17T01:00:34;11.60;99.90
15969;DHT22;8085;53.472;9.794;2022-09-17T01:03:02;11.60;99.90
15969;DHT22;8085;53.472;9.794;2022-09-17T01:05:32;11.50;99.90
15969;DHT22;8085;53.472;9.794;2022-09-17T01:08:07;11.50;99.90
15969;DHT22;8085;53.472;9.794;2022-09-17T01:10:48;11.50;99.90
15969;DHT22;8085;53.472;9.794;2022-09-17T01:13:26;11.50;99.90
15969;DHT22;8085;53.472;9.794;2022-09-17T01:16:02;11.50;99.90
15969;DHT22;8085;53.472;9.794;2022-09-17T01:18:40;11.50;99.90
15969;DHT22;8085;53.472;9.794;2022-09-17T01:24:38;11.50;99.90
15969;DHT22;8085;53.472;9.794;2022-09-17T01:30:28;11.40;99.90
15969;DHT22;8085;53.472;9.794;2022-09-17T01:33:00;11.40;99.90
15969;DHT22;8085;53.472;9.794;2022-09-17T01:35:34;11.30;99.90
15969;DHT22;8085;53.472;9.794;2022-09-17T01:38:09;11.30;99.90
15969;DHT22;8085;53.472;9.794;2022-09-17T01:40:44;11.20;99.90
15969;DHT22;8085;53.472;9.794;2022-09-17T01:43:20;11.30;99.90
15969;DHT22;8085;53.472;9.794;2022-09-17T01:45:51;11.20;99.90
15969;DHT22;8085;53.472;9.794;2022-09-17T01:48:19;11.20;99.90
15969;DHT22;8085;53.472;9.794;2022-09-17T01:50:50;11.20;99.90
15969;DHT22;8085;53.472;9.794;2022-09-17T01:53:21;11.20;99.90
15969;DHT22;8085;53.472;9.794;2022-09-17T01:55:51;11.20;99.90
15969;DHT22;8085;53.472;9.794;2022-09-17T01:58:23;11.20;99.90
15969;DHT22;8085;53.472;9.794;2022-09-17T02:00:55;11.20;99.90
15969;DHT22;8085;53.472;9.794;2022-09-17T02:03:25;11.20;99.90
15969;DHT22;8085;53.472;9.794;2022-09-17T02:05:57;11.20;99.90
15969;DHT22;8085;53.472;9.794;2022-09-17T02:08:27;11.10;99.90
15969;DHT22;8085;53.472;9.794;2022-09-17T02:10:58;11.10;99.90
15969;DHT22;8085;53.472;9.794;2022-09-17T02:13:32;11.10;99.90
15969;DHT22;8085;53.472;9.794;2022-09-17T02:16:06;11.10;99.90
15969;DHT22;8085;53.472;9.794;2022-09-17T02:18:37;11.10;99.90
15969;DHT22;8085;53.472;9.794;2022-09-17T02:21:10;11.20;99.90
15969;DHT22;8085;53.472;9.794;2022-09-17T02:23:44;11.20;99.90
15969;DHT22;8085;53.472;9.794;2022-09-17T02:26:16;11.20;99.90
15969;DHT22;8085;53.472;9.794;2022-09-17T02:28:48;11.20;99.90
15969;DHT22;8085;53.472;9.794;2022-09-17T02:31:18;11.20;99.90
15969;DHT22;8085;53.472;9.794;2022-09-17T02:33:48;11.20;99.90
15969;DHT22;8085;53.472;9.794;2022-09-17T02:36:15;11.20;99.90
15969;DHT22;8085;53.472;9.794;2022-09-17T02:38:44;11.10;99.90
15969;DHT22;8085;53.472;9.794;2022-09-17T02:41:15;11.10;99.90
15969;DHT22;8085;53.472;9.794;2022-09-17T02:43:50;11.10;99.90
15969;DHT22;8085;53.472;9.794;2022-09-17T02:46:39;11.10;99.90
15969;DHT22;8085;53.472;9.794;2022-09-17T02:49:23;11.10;99.90
15969;DHT22;8085;53.472;9.794;2022-09-17T02:52:00;11.10;99.90
15969;DHT22;8085;53.472;9.794;2022-09-17T02:54:37;11.10;99.90
15969;DHT22;8085;53.472;9.794;2022-09-17T02:57:14;11.10;99.90
15969;DHT22;8085;53.472;9.794;2022-09-17T02:59:51;11.00;99.90
15969;DHT22;8085;53.472;9.794;2022-09-17T03:02:22;11.00;99.90
15969;DHT22;8085;53.472;9.794;2022-09-17T03:04:52;10.90;99.90
15969;DHT22;8085;53.472;9.794;2022-09-17T03:07:22;10.90;99.90
15969;DHT22;8085;53.472;9.794;2022-09-17T03:09:49;10.80;99.90
15969;DHT22;8085;53.472;9.794;2022-09-17T03:12:16;10.90;99.90
15969;DHT22;8085;53.472;9.794;2022-09-17T03:14:42;10.80;99.90
15969;DHT22;8085;53.472;9.794;2022-09-17T03:17:10;10.80;99.90
15969;DHT22;8085;53.472;9.794;2022-09-17T03:19:38;10.70;99.90
15969;DHT22;8085;53.472;9.794;2022-09-17T03:22:05;10.70;99.90
15969;DHT22;8085;53.472;9.794;2022-09-17T03:24:32;10.70;99.90
15969;DHT22;8085;53.472;9.794;2022-09-17T03:26:59;10.70;99.90
15969;DHT22;8085;53.472;9.794;2022-09-17T03:29:26;10.70;99.90
15969;DHT22;8085;53.472;9.794;2022-09-17T03:31:52;10.70;99.90
15969;DHT22;8085;53.472;9.794;2022-09-17T03:34:19;10.70;99.90
15969;DHT22;8085;53.472;9.794;2022-09-17T03:36:47;10.70;99.90
15969;DHT22;8085;53.472;9.794;2022-09-17T03:39:14;10.60;99.90
15969;DHT22;8085;53.472;9.794;2022-09-17T03:41:41;10.60;99.90
15969;DHT22;8085;53.472;9.794;2022-09-17T03:44:08;10.50;99.90
15969;DHT22;8085;53.472;9.794;2022-09-17T03:46:35;10.50;99.90
15969;DHT22;8085;53.472;9.794;2022-09-17T03:49:02;10.50;99.90
15969;DHT22;8085;53.472;9.794;2022-09-17T03:51:29;10.50;99.90
15969;DHT22;8085;53.472;9.794;2022-09-17T03:53:57;10.50;99.90
15969;DHT22;8085;53.472;9.794;2022-09-17T03:56:24;10.50;99.90
15969;DHT22;8085;53.472;9.794;2022-09-17T03:58:56;10.50;99.90
15969;DHT22;8085;53.472;9.794;2022-09-17T04:01:23;10.40;99.90
15969;DHT22;8085;53.472;9.794;2022-09-17T04:03:50;10.40;99.90
15969;DHT22;8085;53.472;9.794;2022-09-17T04:06:17;10.40;99.90
15969;DHT22;8085;53.472;9.794;2022-09-17T04:08:44;10.30;99.90
15969;DHT22;8085;53.472;9.794;2022-09-17T04:11:12;10.30;99.90
15969;DHT22;8085;53.472;9.794;2022-09-17T04:13:39;10.30;99.90
15969;DHT22;8085;53.472;9.794;2022-09-17T04:16:06;10.30;99.90
15969;DHT22;8085;53.472;9.794;2022-09-17T04:18:33;10.40;99.90
15969;DHT22;8085;53.472;9.794;2022-09-17T04:20:59;10.40;99.90
15969;DHT22;8085;53.472;9.794;2022-09-17T04:23:26;10.40;99.90
15969;DHT22;8085;53.472;9.794;2022-09-17T04:25:53;10.40;99.90
15969;DHT22;8085;53.472;9.794;2022-09-17T04:28:21;10.40;99.90
15969;DHT22;8085;53.472;9.794;2022-09-17T04:30:48;10.40;99.90
15969;DHT22;8085;53.472;9.794;2022-09-17T04:33:15;10.40;99.90
15969;DHT22;8085;53.472;9.794;2022-09-17T04:35:42;10.40;99.90
15969;DHT22;8085;53.472;9.794;2022-09-17T04:38:09;10.40;99.90
15969;DHT22;8085;53.472;9.794;2022-09-17T04:40:39;10.40;99.90
15969;DHT22;8085;53.472;9.794;2022-09-17T04:43:07;10.40;99.90
15969;DHT22;8085;53.472;9.794;2022-09-17T04:45:36;10.40;99.90
15969;DHT22;8085;53.472;9.794;2022-09-17T04:48:04;10.30;99.90
15969;DHT22;8085;53.472;9.794;2022-09-17T04:50:30;10.30;99.90
15969;DHT22;8085;53.472;9.794;2022-09-17T04:52:57;10.30;99.90
15969;DHT22;8085;53.472;9.794;2022-09-17T04:55:24;10.30;99.90
15969;DHT22;8085;53.472;9.794;2022-09-17T04:57:52;10.30;99.90
15969;DHT22;8085;53.472;9.794;2022-09-17T05:00:20;10.30;99.90
15969;DHT22;8085;53.472;9.794;2022-09-17T05:02:50;10.30;99.90
15969;DHT22;8085;53.472;9.794;2022-09-17T05:05:18;10.20;99.90
15969;DHT22;8085;53.472;9.794;2022-09-17T05:07:45;10.20;99.90
15969;DHT22;8085;53.472;9.794;2022-09-17T05:10:14;10.10;99.90
15969;DHT22;8085;53.472;9.794;2022-09-17T05:12:47;10.10;99.90
15969;DHT22;8085;53.472;9.794;2022-09-17T05:15:14;10.10;99.90
15969;DHT22;8085;53.472;9.794;2022-09-17T05:17:41;10.10;99.90
15969;DHT22;8085;53.472;9.794;2022-09-17T05:20:09;10.10;99.90
15969;DHT22;8085;53.472;9.794;2022-09-17T05:22:40;10.10;99.90
15969;DHT22;8085;53.472;9.794;2022-09-17T05:25:08;10.10;99.90
15969;DHT22;8085;53.472;9.794;2022-09-17T05:27:35;10.00;99.90
15969;DHT22;8085;53.472;9.794;2022-09-17T05:30:02;10.00;99.90
15969;DHT22;8085;53.472;9.794;2022-09-17T05:32:29;10.10;99.90
15969;DHT22;8085;53.472;9.794;2022-09-17T05:34:56;10.10;99.90
15969;DHT22;8085;53.472;9.794;2022-09-17T05:37:24;10.10;99.90
15969;DHT22;8085;53.472;9.794;2022-09-17T05:39:51;10.10;99.90
15969;DHT22;8085;53.472;9.794;2022-09-17T05:42:17;10.10;99.90
15969;DHT22;8085;53.472;9.794;2022-09-17T05:44:44;10.10;99.90
15969;DHT22;8085;53.472;9.794;2022-09-17T05:47:11;10.20;99.90
15969;DHT22;8085;53.472;9.794;2022-09-17T05:49:38;10.20;99.90
15969;DHT22;8085;53.472;9.794;2022-09-17T05:52:05;10.20;99.90
15969;DHT22;8085;53.472;9.794;2022-09-17T05:54:33;10.10;99.90
15969;DHT22;8085;53.472;9.794;2022-09-17T05:57:00;10.20;99.90
15969;DHT22;8085;53.472;9.794;2022-09-17T05:59:27;10.20;99.90
15969;DHT22;8085;53.472;9.794;2022-09-17T06:01:54;10.20;99.90
15969;DHT22;8085;53.472;9.794;2022-09-17T06:04:20;10.10;99.90
15969;DHT22;8085;53.472;9.794;2022-09-17T06:06:47;10.20;99.90
15969;DHT22;8085;53.472;9.794;2022-09-17T06:09:14;10.10;99.90
15969;DHT22;8085;53.472;9.794;2022-09-17T06:11:42;10.20;99.90
15969;DHT22;8085;53.472;9.794;2022-09-17T06:14:09;10.20;99.90
15969;DHT22;8085;53.472;9.794;2022-09-17T06:16:36;10.30;99.90
15969;DHT22;8085;53.472;9.794;2022-09-17T06:19:03;10.20;99.90
15969;DHT22;8085;53.472;9.794;2022-09-17T06:21:29;10.20;99.90
15969;DHT22;8085;53.472;9.794;2022-09-17T06:23:56;10.20;99.90
15969;DHT22;8085;53.472;9.794;2022-09-17T06:26:23;10.20;99.90
15969;DHT22;8085;53.472;9.794;2022-09-17T06:28:51;10.20;99.90
15969;DHT22;8085;53.472;9.794;2022-09-17T06:31:18;10.30;99.90
15969;DHT22;8085;53.472;9.794;2022-09-17T06:33:45;10.30;99.90
15969;DHT22;8085;53.472;9.794;2022-09-17T06:36:12;10.40;99.90
15969;DHT22;8085;53.472;9.794;2022-09-17T06:38:39;10.40;99.90
15969;DHT22;8085;53.472;9.794;2022-09-17T06:41:06;10.50;99.90
15969;DHT22;8085;53.472;9.794;2022-09-17T06:43:33;10.60;99.90
15969;DHT22;8085;53.472;9.794;2022-09-17T06:46:03;10.50;99.90
15969;DHT22;8085;53.472;9.794;2022-09-17T06:48:33;10.50;99.90
15969;DHT22;8085;53.472;9.794;2022-09-17T06:51:01;10.50;99.90
15969;DHT22;8085;53.472;9.794;2022-09-17T06:53:29;10.50;99.90
15969;DHT22;8085;53.472;9.794;2022-09-17T06:55:56;10.50;99.90
15969;DHT22;8085;53.472;9.794;2022-09-17T06:58:23;10.60;99.90
15969;DHT22;8085;53.472;9.794;2022-09-17T07:00:50;10.60;99.90
15969;DHT22;8085;53.472;9.794;2022-09-17T07:03:18;10.60;99.90
15969;DHT22;8085;53.472;9.794;2022-09-17T07:05:45;10.60;99.90
15969;DHT22;8085;53.472;9.794;2022-09-17T07:08:12;10.70;99.90
15969;DHT22;8085;53.472;9.794;2022-09-17T07:10:38;10.70;99.90
15969;DHT22;8085;53.472;9.794;2022-09-17T07:13:05;10.90;99.90
15969;DHT22;8085;53.472;9.794;2022-09-17T07:15:32;10.90;99.90
15969;DHT22;8085;53.472;9.794;2022-09-17T07:17:59;10.90;99.90
15969;DHT22;8085;53.472;9.794;2022-09-17T07:20:28;10.90;99.90
15969;DHT22;8085;53.472;9.794;2022-09-17T07:22:55;10.90;99.90
15969;DHT22;8085;53.472;9.794;2022-09-17T07:25:22;10.90;99.90
15969;DHT22;8085;53.472;9.794;2022-09-17T07:27:49;10.90;99.90
15969;DHT22;8085;53.472;9.794;2022-09-17T07:30:16;10.90;99.90
15969;DHT22;8085;53.472;9.794;2022-09-17T07:32:43;10.90;99.90
15969;DHT22;8085;53.472;9.794;2022-09-17T07:35:10;10.90;99.90
15969;DHT22;8085;53.472;9.794;2022-09-17T07:37:38;10.90;99.90
15969;DHT22;8085;53.472;9.794;2022-09-17T07:40:06;10.90;99.90
15969;DHT22;8085;53.472;9.794;2022-09-17T07:42:33;10.90;99.90
15969;DHT22;8085;53.472;9.794;2022-09-17T07:45:00;10.90;99.90
15969;DHT22;8085;53.472;9.794;2022-09-17T07:47:27;10.90;99.90
15969;DHT22;8085;53.472;9.794;2022-09-17T07:49:54;10.90;99.90
15969;DHT22;8085;53.472;9.794;2022-09-17T07:52:20;10.90;99.90
15969;DHT22;8085;53.472;9.794;2022-09-17T07:54:49;11.00;99.90
15969;DHT22;8085;53.472;9.794;2022-09-17T07:57:15;11.10;99.90
15969;DHT22;8085;53.472;9.794;2022-09-17T07:59:42;11.10;99.90
15969;DHT22;8085;53.472;9.794;2022-09-17T08:02:11;11.20;99.90
15969;DHT22;8085;53.472;9.794;2022-09-17T08:04:40;11.30;99.90
15969;DHT22;8085;53.472;9.794;2022-09-17T08:07:10;11.30;99.90
15969;DHT22;8085;53.472;9.794;2022-09-17T08:09:37;11.50;99.90
15969;DHT22;8085;53.472;9.794;2022-09-17T08:12:06;11.70;99.90
15969;DHT22;8085;53.472;9.794;2022-09-17T08:14:33;11.60;99.90
15969;DHT22;8085;53.472;9.794;2022-09-17T08:16:59;11.60;99.90
15969;DHT22;8085;53.472;9.794;2022-09-17T08:19:29;11.60;99.90
15969;DHT22;8085;53.472;9.794;2022-09-17T08:21:56;11.60;99.90
15969;DHT22;8085;53.472;9.794;2022-09-17T08:24:23;11.70;99.90
15969;DHT22;8085;53.472;9.794;2022-09-17T08:26:50;11.90;99.90
15969;DHT22;8085;53.472;9.794;2022-09-17T08:29:18;12.00;99.90
15969;DHT22;8085;53.472;9.794;2022-09-17T08:31:45;12.00;99.90
15969;DHT22;8085;53.472;9.794;2022-09-17T08:34:12;12.20;99.90
15969;DHT22;8085;53.472;9.794;2022-09-17T08:36:39;12.30;99.90
15969;DHT22;8085;53.472;9.794;2022-09-17T08:39:06;12.20;99.90
15969;DHT22;8085;53.472;9.794;2022-09-17T08:41:45;12.40;99.90
15969;DHT22;8085;53.472;9.794;2022-09-17T08:44:24;12.50;99.90
15969;DHT22;8085;53.472;9.794;2022-09-17T08:46:57;12.50;99.90
15969;DHT22;8085;53.472;9.794;2022-09-17T08:49:30;12.40;99.90
15969;DHT22;8085;53.472;9.794;2022-09-17T08:52:13;12.70;99.90
15969;DHT22;8085;53.472;9.794;2022-09-17T08:54:54;13.00;99.90
15969;DHT22;8085;53.472;9.794;2022-09-17T08:57:28;13.10;99.90
15969;DHT22;8085;53.472;9.794;2022-09-17T09:00:03;12.90;99.90
15969;DHT22;8085;53.472;9.794;2022-09-17T09:02:45;12.90;99.90
15969;DHT22;8085;53.472;9.794;2022-09-17T09:05:15;12.50;99.90
15969;DHT22;8085;53.472;9.794;2022-09-17T09:07:47;12.10;98.00
15969;DHT22;8085;53.472;9.794;2022-09-17T09:10:19;12.00;99.90
15969;DHT22;8085;53.472;9.794;2022-09-17T09:12:49;12.20;99.90
15969;DHT22;8085;53.472;9.794;2022-09-17T09:15:31;12.20;99.90
15969;DHT22;8085;53.472;9.794;2022-09-17T09:18:05;12.20;99.90
15969;DHT22;8085;53.472;9.794;2022-09-17T09:20:42;12.30;99.90
15969;DHT22;8085;53.472;9.794;2022-09-17T09:23:17;12.40;99.90
15969;DHT22;8085;53.472;9.794;2022-09-17T09:25:52;12.50;99.90
15969;DHT22;8085;53.472;9.794;2022-09-17T09:28:32;12.40;99.90
15969;DHT22;8085;53.472;9.794;2022-09-17T09:31:08;12.70;99.90
15969;DHT22;8085;53.472;9.794;2022-09-17T09:33:41;12.70;95.80
15969;DHT22;8085;53.472;9.794;2022-09-17T09:36:11;12.60;97.30
15969;DHT22;8085;53.472;9.794;2022-09-17T09:38:42;12.40;74.50
15969;DHT22;8085;53.472;9.794;2022-09-17T09:41:17;12.40;88.60
15969;DHT22;8085;53.472;9.794;2022-09-17T09:43:46;12.30;93.70
15969;DHT22;8085;53.472;9.794;2022-09-17T09:46:27;12.20;52.90
15969;DHT22;8085;53.472;9.794;2022-09-17T09:49:05;12.10;34.90
15969;DHT22;8085;53.472;9.794;2022-09-17T09:51:43;12.30;50.20
15969;DHT22;8085;53.472;9.794;2022-09-17T09:54:27;12.60;36.20
15969;DHT22;8085;53.472;9.794;2022-09-17T09:56:56;12.40;31.80
15969;DHT22;8085;53.472;9.794;2022-09-17T09:59:25;12.40;51.50
15969;DHT22;8085;53.472;9.794;2022-09-17T10:01:53;12.40;72.00
15969;DHT22;8085;53.472;9.794;2022-09-17T10:04:22;12.00;97.50
15969;DHT22;8085;53.472;9.794;2022-09-17T10:06:50;11.60;88.90
15969;DHT22;8085;53.472;9.794;2022-09-17T10:09:18;11.50;82.30
15969;DHT22;8085;53.472;9.794;2022-09-17T10:12:05;11.50;98.30
15969;DHT22;8085;53.472;9.794;2022-09-17T10:14:41;11.40;99.90
15969;DHT22;8085;53.472;9.794;2022-09-17T10:17:18;11.40;99.90
15969;DHT22;8085;53.472;9.794;2022-09-17T10:20:00;11.50;98.30
15969;DHT22;8085;53.472;9.794;2022-09-17T10:22:36;11.40;99.90
15969;DHT22;8085;53.472;9.794;2022-09-17T10:25:05;11.40;99.90
15969;DHT22;8085;53.472;9.794;2022-09-17T10:27:33;11.40;97.80
15969;DHT22;8085;53.472;9.794;2022-09-17T10:30:13;11.50;90.60
15969;DHT22;8085;53.472;9.794;2022-09-17T10:32:42;11.70;98.20
15969;DHT22;8085;53.472;9.794;2022-09-17T10:35:25;11.50;87.40
15969;DHT22;8085;53.472;9.794;2022-09-17T10:37:53;11.50;99.50
15969;DHT22;8085;53.472;9.794;2022-09-17T10:40:26;11.40;93.60
15969;DHT22;8085;53.472;9.794;2022-09-17T10:43:19;11.70;87.90
15969;DHT22;8085;53.472;9.794;2022-09-17T10:45:55;12.00;87.80
15969;DHT22;8085;53.472;9.794;2022-09-17T10:48:26;12.30;90.10
15969;DHT22;8085;53.472;9.794;2022-09-17T10:50:56;12.20;57.40
15969;DHT22;8085;53.472;9.794;2022-09-17T10:53:24;12.00;72.20
15969;DHT22;8085;53.472;9.794;2022-09-17T10:55:57;12.20;81.80
15969;DHT22;8085;53.472;9.794;2022-09-17T10:58:36;12.10;77.20
15969;DHT22;8085;53.472;9.794;2022-09-17T11:01:16;12.20;84.90
15969;DHT22;8085;53.472;9.794;2022-09-17T11:07:20;11.80;98.90
15969;DHT22;8085;53.472;9.794;2022-09-17T11:09:54;11.70;99.90
15969;DHT22;8085;53.472;9.794;2022-09-17T11:12:32;11.80;99.90
15969;DHT22;8085;53.472;9.794;2022-09-17T11:15:18;11.80;95.90
15969;DHT22;8085;53.472;9.794;2022-09-17T11:18:02;11.90;99.90
15969;DHT22;8085;53.472;9.794;2022-09-17T11:20:48;12.30;99.30
15969;DHT22;8085;53.472;9.794;2022-09-17T11:23:29;12.00;99.90
15969;DHT22;8085;53.472;9.794;2022-09-17T11:26:04;11.50;99.90
15969;DHT22;8085;53.472;9.794;2022-09-17T11:28:48;11.00;99.90
15969;DHT22;8085;53.472;9.794;2022-09-17T11:31:28;10.70;99.90
15969;DHT22;8085;53.472;9.794;2022-09-17T11:34:19;10.50;99.90
15969;DHT22;8085;53.472;9.794;2022-09-17T11:36:53;10.40;99.90
15969;DHT22;8085;53.472;9.794;2022-09-17T11:39:26;10.50;99.90
15969;DHT22;8085;53.472;9.794;2022-09-17T11:41:54;10.40;99.90
15969;DHT22;8085;53.472;9.794;2022-09-17T11:44:26;10.30;99.90
15969;DHT22;8085;53.472;9.794;2022-09-17T11:46:56;10.40;99.90
15969;DHT22;8085;53.472;9.794;2022-09-17T11:49:31;10.40;99.90
15969;DHT22;8085;53.472;9.794;2022-09-17T11:52:04;10.50;99.90
15969;DHT22;8085;53.472;9.794;2022-09-17T11:54:37;10.60;99.90
15969;DHT22;8085;53.472;9.794;2022-09-17T11:57:10;10.70;99.90
15969;DHT22;8085;53.472;9.794;2022-09-17T11:59:43;10.70;99.90
15969;DHT22;8085;53.472;9.794;2022-09-17T12:02:18;10.80;99.90
15969;DHT22;8085;53.472;9.794;2022-09-17T12:04:52;10.80;99.90
15969;DHT22;8085;53.472;9.794;2022-09-17T12:07:30;10.90;99.90
15969;DHT22;8085;53.472;9.794;2022-09-17T12:10:08;10.90;99.90
15969;DHT22;8085;53.472;9.794;2022-09-17T12:12:47;11.00;99.90
15969;DHT22;8085;53.472;9.794;2022-09-17T12:15:21;11.20;99.90
15969;DHT22;8085;53.472;9.794;2022-09-17T12:17:53;11.30;99.90
15969;DHT22;8085;53.472;9.794;2022-09-17T12:20:26;11.40;99.90
15969;DHT22;8085;53.472;9.794;2022-09-17T12:22:57;12.00;99.90
15969;DHT22;8085;53.472;9.794;2022-09-17T12:25:31;12.50;99.90
15969;DHT22;8085;53.472;9.794;2022-09-17T12:28:03;12.30;99.90
15969;DHT22;8085;53.472;9.794;2022-09-17T12:30:37;12.40;99.90
15969;DHT22;8085;53.472;9.794;2022-09-17T12:33:18;12.60;99.90
15969;DHT22;8085;53.472;9.794;2022-09-17T12:36:07;12.40;99.90
15969;DHT22;8085;53.472;9.794;2022-09-17T12:38:48;12.40;99.90
15969;DHT22;8085;53.472;9.794;2022-09-17T12:41:20;13.10;99.90
15969;DHT22;8085;53.472;9.794;2022-09-17T12:43:58;12.90;99.90
15969;DHT22;8085;53.472;9.794;2022-09-17T12:46:44;13.30;99.90
15969;DHT22;8085;53.472;9.794;2022-09-17T12:49:45;14.00;99.90
15969;DHT22;8085;53.472;9.794;2022-09-17T12:52:21;14.30;99.90
15969;DHT22;8085;53.472;9.794;2022-09-17T12:55:17;13.90;99.90
15969;DHT22;8085;53.472;9.794;2022-09-17T12:57:49;13.70;99.90
15969;DHT22;8085;53.472;9.794;2022-09-17T13:00:17;13.60;99.90
15969;DHT22;8085;53.472;9.794;2022-09-17T13:02:50;13.40;99.90
15969;DHT22;8085;53.472;9.794;2022-09-17T13:05:41;13.20;99.90
15969;DHT22;8085;53.472;9.794;2022-09-17T13:08:29;13.20;99.90
15969;DHT22;8085;53.472;9.794;2022-09-17T13:14:10;12.90;99.90
15969;DHT22;8085;53.472;9.794;2022-09-17T13:16:45;12.50;99.90
15969;DHT22;8085;53.472;9.794;2022-09-17T13:19:29;12.30;99.90
15969;DHT22;8085;53.472;9.794;2022-09-17T13:22:03;12.00;99.90
15969;DHT22;8085;53.472;9.794;2022-09-17T13:24:32;11.90;99.90
15969;DHT22;8085;53.472;9.794;2022-09-17T13:27:02;11.80;99.90
15969;DHT22;8085;53.472;9.794;2022-09-17T13:29:58;11.90;99.90
15969;DHT22;8085;53.472;9.794;2022-09-17T13:32:45;11.90;99.90
15969;DHT22;8085;53.472;9.794;2022-09-17T13:35:49;12.00;99.90
15969;DHT22;8085;53.472;9.794;2022-09-17T13:38:21;12.10;99.90
15969;DHT22;8085;53.472;9.794;2022-09-17T13:40:48;12.20;99.90
15969;DHT22;8085;53.472;9.794;2022-09-17T13:43:19;12.40;99.90
15969;DHT22;8085;53.472;9.794;2022-09-17T13:46:08;12.50;99.90
15969;DHT22;8085;53.472;9.794;2022-09-17T13:48:44;12.60;99.90
15969;DHT22;8085;53.472;9.794;2022-09-17T13:51:42;12.60;99.90
15969;DHT22;8085;53.472;9.794;2022-09-17T13:54:10;13.20;99.90
15969;DHT22;8085;53.472;9.794;2022-09-17T13:56:39;13.50;99.90
15969;DHT22;8085;53.472;9.794;2022-09-17T13:59:11;13.80;99.90
15969;DHT22;8085;53.472;9.794;2022-09-17T14:02:00;14.10;99.90
15969;DHT22;8085;53.472;9.794;2022-09-17T14:04:33;14.10;99.90
15969;DHT22;8085;53.472;9.794;2022-09-17T14:07:31;14.20;99.90
15969;DHT22;8085;53.472;9.794;2022-09-17T14:09:59;14.20;99.90
15969;DHT22;8085;53.472;9.794;2022-09-17T14:12:56;13.90;99.90
15969;DHT22;8085;53.472;9.794;2022-09-17T14:15:35;13.80;99.90
15969;DHT22;8085;53.472;9.794;2022-09-17T14:18:34;14.00;99.90
15969;DHT22;8085;53.472;9.794;2022-09-17T14:21:08;14.50;99.90
15969;DHT22;8085;53.472;9.794;2022-09-17T14:23:42;14.80;99.90
15969;DHT22;8085;53.472;9.794;2022-09-17T14:26:18;14.50;99.90
15969;DHT22;8085;53.472;9.794;2022-09-17T14:28:50;14.10;99.90
15969;DHT22;8085;53.472;9.794;2022-09-17T14:31:23;13.90;99.90
15969;DHT22;8085;53.472;9.794;2022-09-17T14:33:52;13.90;99.90
15969;DHT22;8085;53.472;9.794;2022-09-17T14:36:20;13.90;99.90
15969;DHT22;8085;53.472;9.794;2022-09-17T14:38:50;13.80;99.90
15969;DHT22;8085;53.472;9.794;2022-09-17T14:41:21;13.80;99.90
15969;DHT22;8085;53.472;9.794;2022-09-17T14:43:52;13.70;99.90
15969;DHT22;8085;53.472;9.794;2022-09-17T14:46:22;13.50;99.90
15969;DHT22;8085;53.472;9.794;2022-09-17T14:48:51;13.20;99.90
15969;DHT22;8085;53.472;9.794;2022-09-17T14:51:24;12.30;99.90
15969;DHT22;8085;53.472;9.794;2022-09-17T14:54:14;11.80;99.90
15969;DHT22;8085;53.472;9.794;2022-09-17T14:59:40;11.20;99.90
15969;DHT22;8085;53.472;9.794;2022-09-17T15:02:28;11.10;99.90
15969;DHT22;8085;53.472;9.794;2022-09-17T15:04:58;11.10;99.90
15969;DHT22;8085;53.472;9.794;2022-09-17T15:07:26;11.10;99.90
15969;DHT22;8085;53.472;9.794;2022-09-17T15:09:53;11.10;99.90
15969;DHT22;8085;53.472;9.794;2022-09-17T15:12:31;11.10;99.90
15969;DHT22;8085;53.472;9.794;2022-09-17T15:14:58;11.10;99.90
15969;DHT22;8085;53.472;9.794;2022-09-17T15:17:25;11.20;99.90
15969;DHT22;8085;53.472;9.794;2022-09-17T15:19:55;11.20;99.90
15969;DHT22;8085;53.472;9.794;2022-09-17T15:22:26;11.30;99.90
15969;DHT22;8085;53.472;9.794;2022-09-17T15:24:55;11.40;99.90
15969;DHT22;8085;53.472;9.794;2022-09-17T15:27:27;11.40;99.90
15969;DHT22;8085;53.472;9.794;2022-09-17T15:29:56;11.40;99.90
15969;DHT22;8085;53.472;9.794;2022-09-17T15:32:24;11.50;99.90
15969;DHT22;8085;53.472;9.794;2022-09-17T15:37:57;11.60;99.90
15969;DHT22;8085;53.472;9.794;2022-09-17T15:40:29;11.70;99.90
15969;DHT22;8085;53.472;9.794;2022-09-17T15:43:02;11.80;99.90
15969;DHT22;8085;53.472;9.794;2022-09-17T15:45:31;11.80;99.90
15969;DHT22;8085;53.472;9.794;2022-09-17T15:48:02;11.80;99.90
15969;DHT22;8085;53.472;9.794;2022-09-17T15:50:30;11.80;99.90
15969;DHT22;8085;53.472;9.794;2022-09-17T15:53:11;11.90;99.90
15969;DHT22;8085;53.472;9.794;2022-09-17T15:55:40;11.80;99.90
15969;DHT22;8085;53.472;9.794;2022-09-17T15:58:23;11.80;99.90
15969;DHT22;8085;53.472;9.794;2022-09-17T16:07:25;11.60;99.90
15969;DHT22;8085;53.472;9.794;2022-09-17T16:09:55;11.50;99.90
15969;DHT22;8085;53.472;9.794;2022-09-17T16:12:25;11.50;99.90
15969;DHT22;8085;53.472;9.794;2022-09-17T16:14:54;11.50;99.90
15969;DHT22;8085;53.472;9.794;2022-09-17T16:17:43;11.40;99.90
15969;DHT22;8085;53.472;9.794;2022-09-17T16:20:15;11.40;99.90
15969;DHT22;8085;53.472;9.794;2022-09-17T16:22:43;11.40;99.90
15969;DHT22;8085;53.472;9.794;2022-09-17T16:25:14;11.40;99.90
15969;DHT22;8085;53.472;9.794;2022-09-17T16:27:47;11.40;99.90
15969;DHT22;8085;53.472;9.794;2022-09-17T16:30:17;11.40;99.90
15969;DHT22;8085;53.472;9.794;2022-09-17T16:32:45;11.40;99.90
15969;DHT22;8085;53.472;9.794;2022-09-17T16:35:13;11.50;99.90
15969;DHT22;8085;53.472;9.794;2022-09-17T16:37:40;11.60;99.90
15969;DHT22;8085;53.472;9.794;2022-09-17T16:40:09;11.60;99.90